Hlavní strana
METAR-TAF:

METAR-TAF

Letiště :

Victoria, Mahé, Seychely

zeměpisná šířka: 04-40S, zeměpisná délka: 055-31E, výška: 3 m

Aktuální stav počasí

Zpráva byla vytvořena před 55 minutami, v 08:00 UTC
Jižní vítr 6 kt, proměnlivý mezi východním a západojihozápadním
Teplota 28°C
Vlhkost vzduchu 70%
Tlak 1014 hPa
Viditelnost 10 km a více
Polojasno ve výšce 2000 ft

METAR: FSIA 160800Z 17006KT 090V240 9999 R13///// SCT020 28/22 Q1014 NOSIG

Čas: 12:55 (08:55 UTC)

Předpověď počasí

Zpráva byla vytvořena před 9 hodinami a 46 minutami, v 23:09 UTC
Předpověď platná od 16 v 00 UTC do 16 v 24 UTC
Jižní vítr 15 kt
Viditelnost 10 km a více
Polojasno ve výšce 2000 ft
Dočasný
od 16 v 00 UTC do 16 v 06 UTC
Viditelnost: 8000 m
Oblačno až skoro zataženo ve výšce 1800 ft
slabé dešťové přeháňky

TAF: FSIA 152309Z 1600/1624 17015KT 9999 SCT020 TEMPO 1600/1606 8000 -SHRA BKN018

Stav a předpovědi počasí z více než 4 000 letišť (zprávy METAR a TAF).

Červené a žluté tečky na mapě představují dostupné meteorologické stanice.

Když kurzor umístíte na tečku, zobrazí se název stanice.

Pak kliknutím zobrazíte stav a předpověď počasí.

Chcete-li změnit mapu, kliknutím na zelené tlačítko se znaménkem +mapu přiblížíte, kliknutím na zelené tlačítko se znaménkem – mapu oddálíte a kliknutím na zelené šipky přejdete na sousední mapy.


METAR-TAF: